EKGR weather

Grenaa Airport
Grenaa, Central Jutland, Denmark

Public forecast

Using degrees Celsius for public forecast. Weather courtesy of forecast.io.

Closest aviation weather report (METAR) to Grenaa Airport

Closest report is Aarhus Airport, 13.4 nm (24.9 km) SW. Retrieved 2019/12/10 21:20 UTC (0 seconds ago):

EKAH 102120Z AUTO 18015G31KT 110V230 9999NDV -DZ BKN022/// 05/02 Q1006

Closest aviation forecast (TAF) to Grenaa Airport

Closest forecast is Aarhus Airport, 13.4 nm (24.9 km) SW. Retrieved 2019/12/10 18:06 UTC (3 hours ago):

TAF TAF EKAH 101701Z 1018/1118 19015G30KT 9999 BKN030 BECMG 1018/1021 18020G40KT -RADZ TEMPO 1102/1107 4000 RADZ BKN010 BECMG 1106/1108 21012KT BECMG 1108/1110 NSW